Hurlburt Field, Florida
Current Conditions -  °F | °C
As of 2:58 PM on Thursday 23 Oct 2014 (Local Time) from KHRT Reporting Station
Clear Clear  
Wind Chill: 23°   Ceiling: Unl
Heat Index: 23°   Visibility: 10mi
Dew Point:   Wind: 0mph
Humidity: 34%   Direction: NA
Pressure: 30"   Gusts: NA
Location:  30.43°N, 86.69°W
Report Text: KHRT 231958Z AUTO 00000KT 10SM CLR 23/06 A3000 RMK AO2 DZB1932E1933 SLP161 P0000 T02270059 RVRNO $
Loading
Personal Weather Stations






























Interactive Weather Map
Tropical Storm Tracking
New forecast layout! Learn more

10-Day Weather Forecast

Advertisements
Track Severe Weather on mobile